Time;durP1;ratioP1;P1;durP2;ratioP2;P2;SDS_P1;SDS_P2;PMS_P1;PMS_P2;Temp;Humidity;BMP_temperature;BMP_pressure;BME280_temperature;BME280_humidity;BME280_pressure;Samples;Min_cycle;Max_cycle;Signal;HPM_P1;HPM_P2
2022/05/12 00:02:22;;;;;;;2.45;2.05;;;;;;;;;;5053262;28;20115;-71
2022/05/12 00:04:48;;;;;;;2.95;2.13;;;;;;;;;;5034756;28;20112;-70
2022/05/12 00:07:14;;;;;;;4.40;2.00;;;;;;;;;;5033646;28;20432;-70
2022/05/12 00:09:40;;;;;;;6.18;2.08;;;;;;;;;;5036185;28;20052;-70
2022/05/12 00:12:06;;;;;;;3.30;2.25;;;;;;;;;;5053653;28;20071;-69
2022/05/12 00:14:32;;;;;;;5.35;2.08;;;;;;;;;;5054440;28;20523;-70
2022/05/12 00:16:58;;;;;;;5.90;2.22;;;;;;;;;;5054225;28;20029;-70
2022/05/12 00:19:26;;;;;;;5.25;2.10;;;;;;;;;;5053386;28;20033;-70
2022/05/12 00:21:52;;;;;;;5.30;2.20;;;;;;;;;;5053979;28;20025;-69
2022/05/12 00:24:19;;;;;;;4.00;2.30;;;;;;;;;;5051339;28;20160;-71
2022/05/12 00:26:45;;;;;;;3.20;2.45;;;;;;;;;;5054152;28;20032;-70
2022/05/12 00:29:11;;;;;;;3.08;2.40;;;;;;;;;;5053268;28;20017;-70
2022/05/12 00:31:40;;;;;;;5.38;2.15;;;;;;;;;;5053776;28;20371;-72
2022/05/12 00:34:07;;;;;;;3.38;2.30;;;;;;;;;;5053286;28;20236;-69
2022/05/12 00:36:33;;;;;;;5.45;2.40;;;;;;;;;;5052457;28;20044;-70
2022/05/12 00:38:59;;;;;;;5.63;2.45;;;;;;;;;;5053411;28;20032;-70
2022/05/12 00:41:25;;;;;;;3.67;2.03;;;;;;;;;;5052675;28;20033;-70
2022/05/12 00:43:53;;;;;;;3.17;2.00;;;;;;;;;;5053937;28;20059;-70
2022/05/12 00:46:20;;;;;;;3.88;2.00;;;;;;;;;;5052166;28;20021;-70
2022/05/12 00:48:47;;;;;;;3.67;2.25;;;;;;;;;;5053494;28;20209;-70
2022/05/12 00:51:24;;;;;;;2.97;2.30;;;;;;;;;;5052927;28;20023;-70
2022/05/12 00:53:52;;;;;;;3.90;2.40;;;;;;;;;;5053185;28;20028;-70
2022/05/12 00:56:20;;;;;;;2.78;2.00;;;;;;;;;;5052353;28;20374;-70
2022/05/12 00:58:49;;;;;;;4.85;2.30;;;;;;;;;;5053585;28;20098;-71
2022/05/12 01:01:16;;;;;;;6.32;2.22;;;;;;;;;;5053661;28;20025;-70
2022/05/12 01:03:42;;;;;;;3.08;2.08;;;;;;;;;;5053722;28;20021;-70
2022/05/12 01:06:09;;;;;;;3.30;2.60;;;;;;;;;;5052675;28;20083;-69
2022/05/12 01:08:35;;;;;;;4.18;2.33;;;;;;;;;;5052196;28;20063;-70
2022/05/12 01:11:04;;;;;;;3.47;2.42;;;;;;;;;;5053373;28;20065;-71
2022/05/12 01:13:30;;;;;;;3.78;2.20;;;;;;;;;;5052009;28;20051;-70
2022/05/12 01:15:58;;;;;;;4.22;2.33;;;;;;;;;;5053282;28;20370;-72
2022/05/12 01:18:24;;;;;;;3.08;2.40;;;;;;;;;;5051883;28;20216;-70
2022/05/12 01:20:51;;;;;;;3.22;2.22;;;;;;;;;;5053146;28;20074;-70
2022/05/12 01:23:36;;;;;;;3.97;2.25;;;;;;;;;;5051903;28;20370;-69
2022/05/12 01:26:04;;;;;;;4.65;2.22;;;;;;;;;;5033402;28;20022;-70
2022/05/12 01:28:30;;;;;;;4.47;2.58;;;;;;;;;;5039552;28;20032;-70
2022/05/12 01:30:56;;;;;;;3.85;2.10;;;;;;;;;;5052913;28;20017;-70
2022/05/12 01:33:23;;;;;;;3.42;2.10;;;;;;;;;;5051906;28;20108;-69
2022/05/12 01:35:49;;;;;;;3.60;2.35;;;;;;;;;;5052993;28;20079;-70
2022/05/12 01:38:15;;;;;;;2.60;2.20;;;;;;;;;;5052076;28;20119;-69
2022/05/12 01:40:43;;;;;;;2.67;2.47;;;;;;;;;;5052586;28;20056;-69
2022/05/12 01:43:09;;;;;;;3.45;2.42;;;;;;;;;;5051774;28;20079;-69
2022/05/12 01:45:35;;;;;;;3.05;1.98;;;;;;;;;;5052888;28;20063;-71
2022/05/12 01:48:01;;;;;;;3.88;2.13;;;;;;;;;;5052699;28;20056;-71
2022/05/12 01:50:27;;;;;;;4.10;1.88;;;;;;;;;;5051916;28;20703;-71
2022/05/12 01:52:53;;;;;;;4.07;2.20;;;;;;;;;;5052658;28;20067;-71
2022/05/12 01:55:20;;;;;;;2.65;2.00;;;;;;;;;;5051432;28;20146;-71
2022/05/12 01:57:46;;;;;;;2.22;1.75;;;;;;;;;;5052386;28;20029;-70
2022/05/12 02:00:15;;;;;;;2.33;2.05;;;;;;;;;;5051539;28;20024;-71
2022/05/12 02:02:41;;;;;;;3.75;2.40;;;;;;;;;;5052239;28;20462;-71
2022/05/12 02:05:11;;;;;;;2.38;1.95;;;;;;;;;;5052533;28;20033;-71
2022/05/12 02:07:37;;;;;;;;;;;;;;;;;;5056405;28;20029;-72
2022/05/12 02:10:05;;;;;;;4.90;2.17;;;;;;;;;;5054534;28;19908;-72
2022/05/12 02:12:31;;;;;;;4.55;2.28;;;;;;;;;;5051640;28;20099;-72
2022/05/12 02:14:57;;;;;;;4.30;2.20;;;;;;;;;;5051363;28;20036;-72
2022/05/12 02:17:23;;;;;;;2.63;2.20;;;;;;;;;;5051474;28;20068;-71
2022/05/12 02:19:48;;;;;;;2.53;2.05;;;;;;;;;;5051981;28;20108;-72
2022/05/12 02:22:15;;;;;;;3.75;2.03;;;;;;;;;;5051275;28;20432;-71
2022/05/12 02:24:41;;;;;;;3.47;2.45;;;;;;;;;;5051724;28;20021;-71
2022/05/12 02:27:07;;;;;;;3.50;2.30;;;;;;;;;;5052191;28;20115;-72
2022/05/12 02:29:33;;;;;;;3.55;2.63;;;;;;;;;;5051268;28;20040;-71
2022/05/12 02:31:59;;;;;;;3.97;2.10;;;;;;;;;;5052189;28;20025;-71
2022/05/12 02:34:24;;;;;;;2.35;2.10;;;;;;;;;;5051439;28;20048;-71
2022/05/12 02:37:00;;;;;;;2.47;2.25;;;;;;;;;;5052017;28;20071;-72
2022/05/12 02:39:27;;;;;;;2.40;2.20;;;;;;;;;;5051001;28;20045;-72
2022/05/12 02:41:53;;;;;;;3.38;2.55;;;;;;;;;;5051845;28;20033;-72
2022/05/12 02:44:19;;;;;;;4.18;2.20;;;;;;;;;;5051008;28;20032;-72
2022/05/12 02:46:45;;;;;;;2.20;2.00;;;;;;;;;;5032305;28;20029;-72
2022/05/12 02:49:11;;;;;;;5.30;2.67;;;;;;;;;;5031369;28;20032;-71
2022/05/12 02:51:37;;;;;;;4.80;2.78;;;;;;;;;;5031843;28;20033;-70
2022/05/12 02:54:03;;;;;;;3.60;2.30;;;;;;;;;;5046165;28;20021;-70
2022/05/12 02:56:29;;;;;;;2.58;2.35;;;;;;;;;;5050832;28;20055;-70
2022/05/12 02:58:55;;;;;;;2.92;2.17;;;;;;;;;;5051784;28;20064;-71
2022/05/12 03:01:21;;;;;;;4.47;2.92;;;;;;;;;;5050775;28;20032;-70
2022/05/12 03:03:47;;;;;;;2.97;2.45;;;;;;;;;;5051836;28;20017;-71
2022/05/12 03:06:13;;;;;;;4.03;2.67;;;;;;;;;;5051359;28;20382;-70
2022/05/12 03:08:44;;;;;;;4.35;2.55;;;;;;;;;;5051871;28;20029;-72
2022/05/12 03:11:10;;;;;;;3.22;2.33;;;;;;;;;;5055263;28;20434;-71
2022/05/12 03:13:36;;;;;;;2.63;2.42;;;;;;;;;;5055274;28;20025;-70
2022/05/12 03:16:02;;;;;;;3.13;2.72;;;;;;;;;;5037625;28;20454;-71
2022/05/12 03:18:29;;;;;;;3.03;2.53;;;;;;;;;;5054459;28;20033;-71
2022/05/12 03:20:55;;;;;;;5.93;2.70;;;;;;;;;;5055154;28;20025;-71
2022/05/12 03:23:23;;;;;;;3.05;2.75;;;;;;;;;;5054776;28;20017;-70
2022/05/12 03:25:51;;;;;;;3.35;2.20;;;;;;;;;;5054930;28;20021;-71
2022/05/12 03:28:17;;;;;;;3.83;2.63;;;;;;;;;;5054338;28;20552;-70
2022/05/12 03:30:43;;;;;;;2.70;2.50;;;;;;;;;;5055389;28;20104;-71
2022/05/12 03:33:09;;;;;;;3.10;2.25;;;;;;;;;;5055351;28;20025;-71
2022/05/12 03:35:36;;;;;;;4.55;2.40;;;;;;;;;;5053885;28;20541;-71
2022/05/12 03:38:02;;;;;;;3.33;2.78;;;;;;;;;;5055075;28;20116;-71
2022/05/12 03:40:28;;;;;;;3.47;2.55;;;;;;;;;;5053791;28;20045;-71
2022/05/12 03:42:58;;;;;;;2.65;2.30;;;;;;;;;;5055024;28;20021;-72
2022/05/12 03:45:24;;;;;;;2.50;2.30;;;;;;;;;;5053759;28;20024;-71
2022/05/12 03:47:50;;;;;;;4.00;2.88;;;;;;;;;;5055247;28;20033;-71
2022/05/12 03:50:19;;;;;;;4.45;2.50;;;;;;;;;;5054142;28;20029;-69
2022/05/12 03:52:45;;;;;;;5.40;2.35;;;;;;;;;;5054411;28;20033;-70
2022/05/12 03:55:12;;;;;;;3.25;2.38;;;;;;;;;;5054435;28;20036;-71
2022/05/12 03:57:39;;;;;;;5.10;2.80;;;;;;;;;;5053805;28;20047;-70
2022/05/12 04:00:07;;;;;;;5.60;3.03;;;;;;;;;;5054483;28;20118;-70
2022/05/12 04:02:33;;;;;;;3.58;2.47;;;;;;;;;;5054015;28;20086;-72
2022/05/12 04:04:59;;;;;;;4.45;2.65;;;;;;;;;;5054696;28;20108;-70
2022/05/12 04:07:26;;;;;;;5.00;2.63;;;;;;;;;;5053752;28;20032;-69
2022/05/12 04:09:52;;;;;;;4.95;2.70;;;;;;;;;;5054726;28;20033;-69
2022/05/12 04:12:18;;;;;;;2.97;2.38;;;;;;;;;;5053600;28;20100;-69
2022/05/12 04:14:45;;;;;;;12.35;3.25;;;;;;;;;;5054449;28;20083;-70
2022/05/12 04:17:13;;;;;;;5.18;2.33;;;;;;;;;;5054495;28;20025;-70
2022/05/12 04:19:39;;;;;;;4.70;2.30;;;;;;;;;;5053564;28;20059;-69
2022/05/12 04:22:05;;;;;;;5.68;2.03;;;;;;;;;;5035287;28;20142;-69
2022/05/12 04:24:31;;;;;;;2.92;2.10;;;;;;;;;;5052733;28;20025;-68
2022/05/12 04:26:58;;;;;;;2.20;2.00;;;;;;;;;;5054499;28;20390;-71
2022/05/12 04:29:24;;;;;;;4.78;2.22;;;;;;;;;;5053119;28;20036;-71
2022/05/12 04:31:50;;;;;;;5.38;2.30;;;;;;;;;;5054300;28;20458;-70
2022/05/12 04:37:01;;;;;;;4.78;1.95;;;;;;;;;;5053812;28;20500;-76
2022/05/12 04:39:27;;;;;;;3.20;2.10;;;;;;;;;;5053133;28;20486;-76
2022/05/12 04:41:53;;;;;;;4.22;1.90;;;;;;;;;;5053338;28;20040;-75
2022/05/12 04:44:19;;;;;;;5.35;1.90;;;;;;;;;;5052565;28;20027;-76
2022/05/12 04:46:45;;;;;;;2.45;1.67;;;;;;;;;;5048003;28;20025;-76
2022/05/12 04:49:13;;;;;;;2.08;1.65;;;;;;;;;;5039240;28;20021;-76
2022/05/12 04:51:39;;;;;;;2.60;1.90;;;;;;;;;;5032953;28;20014;-75
2022/05/12 04:54:09;;;;;;;2.70;1.80;;;;;;;;;;5044381;28;20522;-75
2022/05/12 04:56:35;;;;;;;4.20;1.80;;;;;;;;;;5049071;28;20100;-75
2022/05/12 04:59:01;;;;;;;3.08;2.28;;;;;;;;;;5053475;28;20049;-75
2022/05/12 05:01:27;;;;;;;3.00;1.83;;;;;;;;;;5052869;28;20063;-76
2022/05/12 05:03:53;;;;;;;3.92;2.28;;;;;;;;;;5054133;28;20462;-75
2022/05/12 05:06:19;;;;;;;1.80;1.50;;;;;;;;;;5052795;28;20025;-72
2022/05/12 05:08:45;;;;;;;3.40;1.60;;;;;;;;;;5053301;28;20021;-71
2022/05/12 05:11:11;;;;;;;3.15;1.42;;;;;;;;;;5053479;28;20037;-72
2022/05/12 05:13:37;;;;;;;2.00;1.65;;;;;;;;;;5034989;28;20052;-74
2022/05/12 05:16:03;;;;;;;2.80;1.60;;;;;;;;;;5035189;28;20037;-75
2022/05/12 05:18:30;;;;;;;6.15;2.05;;;;;;;;;;5052568;28;20116;-75
2022/05/12 05:20:56;;;;;;;2.85;1.33;;;;;;;;;;5053295;28;20020;-74
2022/05/12 05:23:22;;;;;;;2.63;1.58;;;;;;;;;;5052540;28;20021;-73
2022/05/12 05:25:49;;;;;;;3.75;1.85;;;;;;;;;;5052654;28;20100;-74
2022/05/12 05:28:15;;;;;;;6.70;1.95;;;;;;;;;;5053391;28;20029;-74
2022/05/12 05:30:42;;;;;;;7.43;1.80;;;;;;;;;;5052668;28;20032;-74
2022/05/12 05:33:08;;;;;;;4.15;1.73;;;;;;;;;;5059078;28;20543;-73
2022/05/12 05:35:34;;;;;;;5.30;1.52;;;;;;;;;;5055274;28;20064;-73
2022/05/12 05:38:01;;;;;;;6.38;1.50;;;;;;;;;;5052891;28;20033;-78
2022/05/12 05:40:28;;;;;;;3.88;1.15;;;;;;;;;;5053423;28;20401;-76
2022/05/12 05:42:55;;;;;;;3.38;1.33;;;;;;;;;;5054977;28;20064;-76
2022/05/12 05:45:22;;;;;;;7.00;1.75;;;;;;;;;;5052366;28;20044;-75
2022/05/12 05:47:49;;;;;;;3.60;1.55;;;;;;;;;;5052778;28;20029;-74
2022/05/12 05:50:17;;;;;;;7.90;2.03;;;;;;;;;;5049108;28;20025;-73
2022/05/12 05:55:28;;;;;;;5.00;1.75;;;;;;;;;;5051586;28;20035;-72
2022/05/12 05:57:54;;;;;;;4.32;2.28;;;;;;;;;;5051306;28;20037;-73
2022/05/12 06:00:20;;;;;;;7.55;2.10;;;;;;;;;;5042693;28;20030;-73
2022/05/12 06:02:46;;;;;;;3.42;1.30;;;;;;;;;;5032209;28;20083;-72
2022/05/12 06:05:13;;;;;;;4.55;1.50;;;;;;;;;;5043299;28;20524;-73
2022/05/12 06:07:40;;;;;;;3.38;1.58;;;;;;;;;;5050879;28;20381;-72
2022/05/12 06:10:06;;;;;;;3.05;1.50;;;;;;;;;;5051846;28;20096;-72
2022/05/12 06:12:33;;;;;;;4.00;1.75;;;;;;;;;;5033625;28;20033;-72
2022/05/12 06:14:59;;;;;;;2.33;1.40;;;;;;;;;;5035747;28;20466;-72
2022/05/12 06:17:26;;;;;;;4.55;1.70;;;;;;;;;;5031076;28;20102;-72
2022/05/12 06:19:52;;;;;;;2.30;1.60;;;;;;;;;;5038031;28;20514;-72
2022/05/12 06:22:19;;;;;;;2.65;1.60;;;;;;;;;;5051774;28;20025;-72
2022/05/12 06:24:45;;;;;;;3.42;1.30;;;;;;;;;;5050658;28;20017;-73
2022/05/12 06:27:11;;;;;;;3.88;1.50;;;;;;;;;;5052299;28;20025;-72
2022/05/12 06:29:37;;;;;;;3.70;1.48;;;;;;;;;;5050984;28;20036;-73
2022/05/12 06:32:06;;;;;;;2.80;1.73;;;;;;;;;;5051666;28;20029;-73
2022/05/12 06:34:32;;;;;;;3.33;1.50;;;;;;;;;;5050901;28;20108;-72
2022/05/12 06:36:59;;;;;;;3.70;1.52;;;;;;;;;;5051601;28;20524;-73
2022/05/12 06:39:25;;;;;;;3.20;1.63;;;;;;;;;;5051020;28;20045;-72
2022/05/12 06:41:52;;;;;;;3.45;1.58;;;;;;;;;;5051553;28;20033;-73
2022/05/12 06:44:19;;;;;;;8.38;1.40;;;;;;;;;;5051147;28;20083;-72
2022/05/12 06:46:45;;;;;;;2.92;1.77;;;;;;;;;;5050956;28;20025;-72
2022/05/12 06:49:11;;;;;;;3.25;1.75;;;;;;;;;;5051689;28;20522;-73
2022/05/12 06:51:37;;;;;;;2.95;1.50;;;;;;;;;;5051084;28;20382;-72
2022/05/12 06:54:03;;;;;;;2.97;1.40;;;;;;;;;;5051666;28;20021;-72
2022/05/12 06:56:30;;;;;;;4.10;1.58;;;;;;;;;;5051229;28;20049;-73
2022/05/12 06:58:56;;;;;;;2.75;1.80;;;;;;;;;;5051444;28;20047;-73
2022/05/12 07:01:23;;;;;;;2.08;1.60;;;;;;;;;;5040454;28;20025;-70
2022/05/12 07:03:49;;;;;;;2.13;1.52;;;;;;;;;;5030732;28;20529;-70
2022/05/12 07:06:16;;;;;;;3.47;1.40;;;;;;;;;;5042456;28;20029;-72
2022/05/12 07:08:42;;;;;;;5.80;1.50;;;;;;;;;;5050547;28;20025;-70
2022/05/12 07:11:09;;;;;;;2.78;1.30;;;;;;;;;;5050642;28;20048;-70
2022/05/12 07:13:35;;;;;;;3.08;1.40;;;;;;;;;;5050167;28;20017;-73
2022/05/12 07:16:02;;;;;;;2.97;1.50;;;;;;;;;;5050790;28;20425;-73
2022/05/12 07:18:29;;;;;;;5.07;1.25;;;;;;;;;;5050253;28;20126;-72
2022/05/12 07:26:39;;;;;;;3.85;1.60;;;;;;;;;;5050222;28;20033;-71
2022/05/12 07:29:07;;;;;;;3.88;1.17;;;;;;;;;;5051251;28;20039;-72
2022/05/12 07:31:33;;;;;;;2.67;1.40;;;;;;;;;;5049274;28;20075;-71
2022/05/12 07:34:00;;;;;;;2.97;1.50;;;;;;;;;;5050998;28;20036;-72
2022/05/12 07:36:28;;;;;;;3.50;1.30;;;;;;;;;;5050404;28;20044;-71
2022/05/12 07:38:57;;;;;;;5.22;1.48;;;;;;;;;;5048815;28;20478;-72
2022/05/12 07:41:24;;;;;;;2.42;1.20;;;;;;;;;;5050883;28;20033;-72
2022/05/12 07:43:51;;;;;;;9.20;1.45;;;;;;;;;;5043875;28;20484;-72
2022/05/12 07:46:20;;;;;;;4.93;1.50;;;;;;;;;;5052272;28;20044;-72
2022/05/12 07:48:46;;;;;;;5.50;1.52;;;;;;;;;;5033549;28;20028;-72
2022/05/12 07:51:12;;;;;;;3.80;1.20;;;;;;;;;;5048465;28;20029;-73
2022/05/12 07:53:39;;;;;;;3.17;1.63;;;;;;;;;;5040499;28;20021;-72
2022/05/12 07:56:05;;;;;;;8.30;1.65;;;;;;;;;;5044507;28;20086;-72
2022/05/12 07:58:32;;;;;;;5.13;1.50;;;;;;;;;;5055282;28;20029;-74
2022/05/12 08:00:58;;;;;;;5.60;1.40;;;;;;;;;;5051988;28;20060;-73
2022/05/12 08:03:25;;;;;;;1.23;1.10;;;;;;;;;;5053889;28;20480;-72
2022/05/12 08:05:53;;;;;;;3.95;1.38;;;;;;;;;;5052334;28;20021;-73
2022/05/12 08:08:19;;;;;;;4.47;1.45;;;;;;;;;;5054558;28;20108;-73
2022/05/12 08:10:45;;;;;;;4.28;1.48;;;;;;;;;;5053454;28;20039;-73
2022/05/12 08:13:17;;;;;;;2.80;1.70;;;;;;;;;;5054601;28;20032;-72
2022/05/12 08:15:47;;;;;;;7.68;1.48;;;;;;;;;;5053240;28;20458;-75
2022/05/12 08:18:13;;;;;;;4.05;1.60;;;;;;;;;;5053701;28;20037;-73
2022/05/12 08:20:39;;;;;;;4.28;1.33;;;;;;;;;;5053434;28;20036;-72
2022/05/12 08:23:06;;;;;;;11.77;2.15;;;;;;;;;;5054176;28;20025;-73
2022/05/12 08:25:32;;;;;;;2.45;1.52;;;;;;;;;;5053411;28;20510;-74
2022/05/12 08:27:58;;;;;;;5.00;1.25;;;;;;;;;;5054111;28;20048;-73
2022/05/12 08:30:25;;;;;;;1.90;1.30;;;;;;;;;;5053464;28;20462;-72
2022/05/12 08:32:51;;;;;;;4.78;1.73;;;;;;;;;;5052841;28;20044;-71
2022/05/12 08:35:17;;;;;;;4.05;1.40;;;;;;;;;;5033789;28;20033;-74
2022/05/12 08:37:44;;;;;;;3.97;1.60;;;;;;;;;;5051321;28;20114;-73
2022/05/12 08:40:18;;;;;;;3.50;1.33;;;;;;;;;;5053781;28;20183;-73
2022/05/12 08:42:45;;;;;;;3.33;1.73;;;;;;;;;;5052661;28;20032;-71
2022/05/12 08:45:14;;;;;;;6.88;1.40;;;;;;;;;;5053040;28;20108;-71
2022/05/12 08:47:45;;;;;;;4.80;1.70;;;;;;;;;;5052953;28;20029;-73
2022/05/12 08:50:25;;;;;;;2.35;1.40;;;;;;;;;;5053364;28;20060;-74
2022/05/12 08:52:52;;;;;;;3.80;1.42;;;;;;;;;;5052578;28;20482;-72
2022/05/12 08:55:22;;;;;;;3.45;1.70;;;;;;;;;;5051955;28;20040;-73
2022/05/12 08:58:05;;;;;;;3.65;1.80;;;;;;;;;;5051815;28;20040;-72
2022/05/12 09:00:38;;;;;;;4.25;1.60;;;;;;;;;;5052383;28;20120;-72
2022/05/12 09:03:18;;;;;;;4.35;1.83;;;;;;;;;;5052936;28;20029;-72
2022/05/12 09:05:56;;;;;;;3.83;2.08;;;;;;;;;;5052769;28;20025;-74
2022/05/12 09:08:40;;;;;;;5.88;2.00;;;;;;;;;;5052464;28;20474;-72
2022/05/12 09:11:14;;;;;;;2.03;1.55;;;;;;;;;;5049976;28;20045;-75
2022/05/12 09:13:42;;;;;;;8.38;2.00;;;;;;;;;;5052444;28;20033;-73
2022/05/12 09:16:17;;;;;;;7.22;2.03;;;;;;;;;;5053318;28;20070;-72
2022/05/12 09:18:43;;;;;;;2.92;1.70;;;;;;;;;;5052817;28;20495;-73
2022/05/12 09:21:15;;;;;;;4.00;2.00;;;;;;;;;;5055092;28;20109;-73
2022/05/12 09:23:42;;;;;;;6.50;2.35;;;;;;;;;;5053582;28;20027;-72
2022/05/12 09:26:26;;;;;;;2.05;1.90;;;;;;;;;;5053343;28;20036;-72
2022/05/12 09:28:53;;;;;;;2.00;1.80;;;;;;;;;;5052475;28;20033;-72
2022/05/12 09:31:20;;;;;;;6.07;2.38;;;;;;;;;;5053488;28;20032;-72
2022/05/12 09:33:48;;;;;;;4.85;2.30;;;;;;;;;;5052259;28;20056;-72
2022/05/12 09:36:16;;;;;;;5.68;2.30;;;;;;;;;;5052903;28;20013;-72
2022/05/12 09:38:44;;;;;;;7.57;2.45;;;;;;;;;;5051619;28;20114;-72
2022/05/12 09:41:33;;;;;;;2.33;1.73;;;;;;;;;;5052498;28;20053;-74
2022/05/12 09:44:10;;;;;;;5.22;2.40;;;;;;;;;;5041931;28;20037;-72
2022/05/12 09:46:36;;;;;;;5.40;2.67;;;;;;;;;;5051836;28;20090;-72
2022/05/12 09:49:21;;;;;;;2.63;2.33;;;;;;;;;;5052709;28;20036;-75
2022/05/12 09:51:47;;;;;;;5.57;2.60;;;;;;;;;;5052213;28;20024;-73
2022/05/12 09:54:16;;;;;;;3.75;3.17;;;;;;;;;;5034546;28;20040;-73
2022/05/12 09:56:46;;;;;;;6.25;2.53;;;;;;;;;;5051697;28;20131;-73
2022/05/12 09:59:12;;;;;;;;;;;;;;;;;;5052589;28;20485;-72
2022/05/12 10:01:49;;;;;;;3.72;2.92;;;;;;;;;;5051711;28;19911;-72
2022/05/12 10:09:59;;;;;;;6.68;2.00;;;;;;;;;;5051892;28;20237;-73
2022/05/12 10:12:27;;;;;;;2.33;1.80;;;;;;;;;;5052169;28;20382;-75
2022/05/12 10:15:00;;;;;;;4.18;2.38;;;;;;;;;;5050883;28;20029;-78
2022/05/12 10:17:38;;;;;;;6.68;2.60;;;;;;;;;;5052071;28;20416;-72
2022/05/12 10:20:10;;;;;;;3.53;2.22;;;;;;;;;;5051325;28;20509;-73
2022/05/12 10:22:36;;;;;;;6.93;2.40;;;;;;;;;;5051556;28;20032;-75
2022/05/12 10:25:17;;;;;;;4.95;2.80;;;;;;;;;;5051962;28;20021;-74
2022/05/12 10:27:53;;;;;;;3.88;1.67;;;;;;;;;;5051336;28;20032;-73
2022/05/12 10:30:19;;;;;;;6.35;2.78;;;;;;;;;;5051417;28;20072;-72
2022/05/12 10:32:46;;;;;;;6.00;2.53;;;;;;;;;;5050707;28;20017;-73
2022/05/12 10:35:24;;;;;;;4.18;2.30;;;;;;;;;;5051387;28;20025;-72
2022/05/12 10:38:06;;;;;;;4.05;2.22;;;;;;;;;;5051034;28;20029;-72
2022/05/12 10:40:32;;;;;;;7.93;2.30;;;;;;;;;;5051783;28;20517;-72
2022/05/12 10:43:11;;;;;;;2.85;2.35;;;;;;;;;;5051597;28;20064;-72
2022/05/12 10:45:42;;;;;;;6.65;2.28;;;;;;;;;;5050906;28;20381;-71
2022/05/12 10:48:23;;;;;;;2.78;2.50;;;;;;;;;;5050943;28;20039;-72
2022/05/12 10:50:57;;;;;;;5.70;2.55;;;;;;;;;;5050496;28;20466;-72
2022/05/12 10:53:23;;;;;;;5.63;2.45;;;;;;;;;;5051834;28;20025;-72
2022/05/12 10:55:58;;;;;;;5.30;2.75;;;;;;;;;;5050970;28;20025;-72
2022/05/12 10:58:30;;;;;;;5.50;2.38;;;;;;;;;;5051755;28;20040;-72
2022/05/12 11:01:10;;;;;;;6.20;2.90;;;;;;;;;;5050969;28;20032;-72
2022/05/12 11:03:40;;;;;;;4.83;2.13;;;;;;;;;;5050877;28;20025;-71
2022/05/12 11:06:09;;;;;;;2.75;2.05;;;;;;;;;;5051774;28;20025;-72
2022/05/12 11:08:38;;;;;;;3.78;2.40;;;;;;;;;;5051567;28;20108;-72
2022/05/12 11:11:08;;;;;;;5.47;2.88;;;;;;;;;;5052073;28;20111;-73
2022/05/12 11:13:40;;;;;;;7.53;3.60;;;;;;;;;;5051236;28;20132;-73
2022/05/12 11:16:36;;;;;;;4.78;2.60;;;;;;;;;;5051776;28;20371;-74
2022/05/12 11:19:06;;;;;;;6.78;2.67;;;;;;;;;;5033669;28;20037;-72
2022/05/12 11:21:33;;;;;;;11.52;2.95;;;;;;;;;;5051008;28;20378;-72
2022/05/12 11:24:05;;;;;;;7.15;2.35;;;;;;;;;;5050494;28;20728;-72
2022/05/12 11:26:40;;;;;;;2.97;2.65;;;;;;;;;;5051393;28;20028;-72
2022/05/12 11:32:25;;;;;;;8.20;2.75;;;;;;;;;;5054892;28;20547;-72
2022/05/12 11:34:56;;;;;;;2.72;2.50;;;;;;;;;;5053950;28;20029;-73
2022/05/12 11:37:33;;;;;;;4.60;3.00;;;;;;;;;;5054584;28;20470;-72
2022/05/12 11:40:00;;;;;;;9.52;2.90;;;;;;;;;;5054166;28;20102;-72
2022/05/12 11:42:26;;;;;;;4.50;2.72;;;;;;;;;;5055045;28;20107;-73
2022/05/12 11:45:09;;;;;;;7.95;2.70;;;;;;;;;;5054217;28;20025;-72
2022/05/12 11:47:53;;;;;;;8.13;2.70;;;;;;;;;;5054951;28;20051;-73
2022/05/12 11:50:27;;;;;;;6.90;2.72;;;;;;;;;;5054537;28;20025;-73
2022/05/12 11:53:04;;;;;;;6.00;2.38;;;;;;;;;;5053737;28;20028;-72
2022/05/12 11:55:35;;;;;;;2.83;2.20;;;;;;;;;;5054842;28;20032;-73
2022/05/12 11:58:09;;;;;;;4.45;2.90;;;;;;;;;;5053919;28;20250;-72
2022/05/12 12:00:35;;;;;;;4.70;2.78;;;;;;;;;;5053694;28;20419;-72
2022/05/12 12:03:19;;;;;;;4.45;2.80;;;;;;;;;;5053806;28;20025;-73
2022/05/12 12:05:48;;;;;;;2.65;2.38;;;;;;;;;;5053986;28;20025;-70
2022/05/12 12:08:32;;;;;;;4.63;2.80;;;;;;;;;;5054371;28;20036;-71
2022/05/12 12:11:13;;;;;;;4.22;2.70;;;;;;;;;;5053274;28;20029;-73
2022/05/12 12:13:41;;;;;;;5.95;2.78;;;;;;;;;;5053963;28;20420;-71
2022/05/12 12:16:07;;;;;;;5.30;2.55;;;;;;;;;;5053975;28;20075;-74
2022/05/12 12:18:33;;;;;;;8.00;2.92;;;;;;;;;;5054051;28;20040;-72
2022/05/12 12:21:00;;;;;;;4.82;2.75;;;;;;;;;;5053727;28;20099;-73
2022/05/12 12:23:35;;;;;;;4.53;2.70;;;;;;;;;;5054252;28;20079;-72
2022/05/12 12:26:04;;;;;;;5.00;2.60;;;;;;;;;;5054768;28;20051;-72
2022/05/12 12:28:29;;;;;;;3.88;2.22;;;;;;;;;;5054673;28;20438;-75
2022/05/12 12:30:56;;;;;;;11.30;2.70;;;;;;;;;;5053569;28;20115;-74
2022/05/12 12:33:21;;;;;;;7.38;2.40;;;;;;;;;;5054307;28;20083;-72
2022/05/12 12:36:02;;;;;;;7.43;2.50;;;;;;;;;;5035370;28;20120;-71
2022/05/12 12:38:46;;;;;;;4.45;2.45;;;;;;;;;;5053537;28;20044;-72
2022/05/12 12:41:17;;;;;;;5.45;2.55;;;;;;;;;;5053379;28;20056;-73
2022/05/12 12:43:49;;;;;;;6.25;2.25;;;;;;;;;;5054139;28;20086;-72
2022/05/12 12:46:18;;;;;;;5.05;2.35;;;;;;;;;;5054283;28;20036;-73
2022/05/12 12:48:48;;;;;;;6.43;2.10;;;;;;;;;;5052703;28;20056;-72
2022/05/12 12:51:26;;;;;;;5.65;2.28;;;;;;;;;;5053425;28;20079;-74
2022/05/12 12:56:37;;;;;;;3.67;2.55;;;;;;;;;;5053916;28;20031;-73
2022/05/12 12:59:05;;;;;;;6.10;2.45;;;;;;;;;;5052198;28;20028;-73
2022/05/12 13:01:47;;;;;;;6.57;2.35;;;;;;;;;;5053728;28;20025;-72
2022/05/12 13:04:14;;;;;;;5.60;2.20;;;;;;;;;;5053586;28;20036;-72
2022/05/12 13:06:41;;;;;;;4.13;2.90;;;;;;;;;;5053396;28;20071;-72
2022/05/12 13:09:06;;;;;;;7.57;2.42;;;;;;;;;;5052469;28;20661;-72
2022/05/12 13:11:36;;;;;;;3.50;2.13;;;;;;;;;;5053620;28;20029;-73
2022/05/12 13:14:03;;;;;;;3.30;2.20;;;;;;;;;;5052186;28;20861;-72
2022/05/12 13:16:35;;;;;;;6.35;2.15;;;;;;;;;;5053505;28;20465;-72
2022/05/12 13:19:01;;;;;;;6.05;2.65;;;;;;;;;;5052265;28;20478;-74
2022/05/12 13:21:36;;;;;;;5.07;2.40;;;;;;;;;;5053215;28;20028;-72
2022/05/12 13:24:23;;;;;;;4.13;2.00;;;;;;;;;;5052144;28;20021;-71
2022/05/12 13:26:50;;;;;;;3.60;2.30;;;;;;;;;;5052271;28;20029;-71
2022/05/12 13:29:36;;;;;;;6.20;2.10;;;;;;;;;;5053134;28;20025;-72
2022/05/12 13:32:07;;;;;;;5.72;2.15;;;;;;;;;;5051784;28;20104;-71
2022/05/12 13:34:35;;;;;;;6.72;2.67;;;;;;;;;;5052982;28;20033;-72
2022/05/12 13:37:15;;;;;;;4.07;2.22;;;;;;;;;;5052077;28;20025;-72
2022/05/12 13:39:47;;;;;;;;;;;;;;;;;;5052890;28;20133;-72
2022/05/12 13:42:15;;;;;;;7.35;2.78;;;;;;;;;;5052696;28;20250;-72
2022/05/12 13:44:41;;;;;;;5.55;2.58;;;;;;;;;;5054039;28;20025;-74
2022/05/12 13:47:08;;;;;;;6.60;2.50;;;;;;;;;;5052331;28;20029;-73
2022/05/12 13:49:35;;;;;;;5.72;2.70;;;;;;;;;;5053299;28;20057;-72
2022/05/12 13:52:13;;;;;;;5.28;2.70;;;;;;;;;;5051916;28;20020;-73
2022/05/12 13:55:02;;;;;;;3.88;2.60;;;;;;;;;;5052051;28;20030;-74
2022/05/12 13:57:33;;;;;;;10.20;2.78;;;;;;;;;;5052266;28;20531;-74
2022/05/12 13:59:59;;;;;;;4.90;2.40;;;;;;;;;;5051618;28;20025;-73
2022/05/12 14:02:29;;;;;;;3.95;2.20;;;;;;;;;;5052400;28;20028;-73
2022/05/12 14:05:00;;;;;;;3.53;2.25;;;;;;;;;;5051195;28;20466;-73
2022/05/12 14:07:27;;;;;;;4.28;2.50;;;;;;;;;;5052312;28;20036;-72
2022/05/12 14:09:56;;;;;;;7.90;2.85;;;;;;;;;;5051011;28;20025;-71
2022/05/12 14:12:28;;;;;;;2.97;2.00;;;;;;;;;;5052159;28;20039;-73
2022/05/12 14:20:33;;;;;;;5.10;2.83;;;;;;;;;;5052152;28;20043;-73
2022/05/12 14:22:59;;;;;;;7.90;2.67;;;;;;;;;;5051703;28;20473;-73
2022/05/12 14:25:25;;;;;;;5.32;2.53;;;;;;;;;;5051925;28;20029;-72
2022/05/12 14:27:52;;;;;;;3.08;2.08;;;;;;;;;;5051027;28;20040;-72
2022/05/12 14:30:19;;;;;;;7.80;2.47;;;;;;;;;;5051917;28;20355;-73
2022/05/12 14:32:47;;;;;;;7.57;2.25;;;;;;;;;;5052153;28;20083;-73
2022/05/12 14:35:15;;;;;;;7.80;2.25;;;;;;;;;;5051690;28;20021;-73
2022/05/12 14:37:41;;;;;;;9.85;2.70;;;;;;;;;;5051368;28;20048;-73
2022/05/12 14:40:07;;;;;;;4.93;2.50;;;;;;;;;;5050819;28;20187;-73
2022/05/12 14:42:34;;;;;;;8.25;2.42;;;;;;;;;;5051776;28;20025;-73
2022/05/12 14:45:00;;;;;;;8.38;2.65;;;;;;;;;;5051422;28;20025;-73
2022/05/12 14:47:30;;;;;;;6.60;2.20;;;;;;;;;;5052206;28;20044;-73
2022/05/12 14:49:56;;;;;;;7.10;2.10;;;;;;;;;;5051007;28;20109;-72
2022/05/12 14:52:24;;;;;;;6.38;2.50;;;;;;;;;;5051738;28;20347;-73
2022/05/12 14:54:51;;;;;;;8.30;2.80;;;;;;;;;;5051519;28;20079;-73
2022/05/12 14:57:17;;;;;;;4.72;2.45;;;;;;;;;;5051064;28;20029;-73
2022/05/12 14:59:43;;;;;;;3.67;2.40;;;;;;;;;;5051693;28;20036;-74
2022/05/12 15:02:11;;;;;;;5.93;2.65;;;;;;;;;;5050398;28;20021;-74
2022/05/12 15:04:38;;;;;;;6.15;2.40;;;;;;;;;;5049876;28;20481;-73
2022/05/12 15:07:04;;;;;;;2.92;2.45;;;;;;;;;;5054546;28;20025;-72
2022/05/12 15:09:30;;;;;;;6.25;2.60;;;;;;;;;;5055527;28;20025;-72
2022/05/12 15:11:56;;;;;;;5.85;2.90;;;;;;;;;;5054419;28;20025;-75
2022/05/12 15:14:22;;;;;;;3.08;2.30;;;;;;;;;;5055183;28;20427;-72
2022/05/12 15:16:49;;;;;;;6.38;3.03;;;;;;;;;;5055411;28;20021;-69
2022/05/12 15:19:14;;;;;;;5.13;2.78;;;;;;;;;;5054620;28;20087;-70
2022/05/12 15:21:41;;;;;;;4.45;2.30;;;;;;;;;;5050982;28;20025;-71